Renovo, Pennsylvania
Current Conditions -  °F | °C
As of 9:15 AM on Tuesday 27 Jan 2015 (Local Time) from KN38 Reporting Station
Few Clouds Few Clouds  
Wind Chill:   Ceiling: Unl
Heat Index: 16°   Visibility: 10mi
Dew Point: 10°   Wind: 10mph
Humidity: 79%   Direction: 340°NNW
Pressure: 29.79"   Gusts: NA
Location:  41.33°N, 77.75°W
Report Text: KN38 271415Z AUTO 34009KT 10SM FEW060 M09/M12 A2979 RMK AO2
Loading
Personal Weather Stations






























Interactive Weather Map New forecast layout! Learn more

10-Day Weather Forecast

Advertisements
Track Severe Weather on mobile